Gnosall, United Kingdom
Current Conditions -  °F | °C
As of 10:50 PM on Sunday 21 Dec 2014 (Local Time) from EGOS Reporting Station
Overcast Overcast  
Wind Chill: 54°   Ceiling: 1400
Heat Index: 54°   Visibility: 6mi
Dew Point: 50°   Wind: 18mph
Humidity: 88%   Direction: 230°SW
Pressure: 30"   Gusts: NA
Location:  52.79°N, 2.25°W
Report Text: EGOS 212250Z AUTO 23016KT 9999 OVC014/// 12/10 Q1016
Loading
Personal Weather Stations






























Interactive Weather Map New forecast layout! Learn more

10-Day Weather Forecast

Advertisements
Track Severe Weather on mobile